createdAt,value
2023-03-08T00:01:48.505Z,10.45
2023-03-08T00:04:17.731Z,9.65
2023-03-08T00:06:49.521Z,8.80
2023-03-08T00:09:18.020Z,9.95
2023-03-08T00:11:47.282Z,10.40
2023-03-08T00:14:16.587Z,9.75
2023-03-08T00:16:45.853Z,9.35
2023-03-08T00:19:15.798Z,9.48
2023-03-08T00:21:44.215Z,9.45
2023-03-08T00:24:16.770Z,9.50
2023-03-08T00:26:46.501Z,9.82
2023-03-08T00:29:15.200Z,9.35
2023-03-08T00:31:44.034Z,9.30
2023-03-08T00:34:16.397Z,10.07
2023-03-08T00:36:45.012Z,9.88
2023-03-08T00:39:18.995Z,9.77
2023-03-08T00:41:49.937Z,14.98
2023-03-08T00:44:18.959Z,10.55
2023-03-08T00:46:47.742Z,11.02
2023-03-08T00:49:18.353Z,15.55
2023-03-08T00:51:47.682Z,13.63
2023-03-08T00:54:16.463Z,10.20
2023-03-08T00:56:45.393Z,17.90
2023-03-08T00:59:14.658Z,27.35
2023-03-08T01:01:43.495Z,17.77
2023-03-08T01:04:13.133Z,15.70
2023-03-08T01:06:43.171Z,14.52
2023-03-08T01:09:14.655Z,13.35
2023-03-08T01:11:44.205Z,12.93
2023-03-08T01:14:15.118Z,14.98
2023-03-08T01:16:45.898Z,13.85
2023-03-08T01:19:15.164Z,13.48
2023-03-08T01:21:44.982Z,15.90
2023-03-08T01:24:13.821Z,16.85
2023-03-08T01:26:43.397Z,24.00
2023-03-08T01:29:14.464Z,13.38
2023-03-08T01:31:44.040Z,11.13
2023-03-08T01:34:12.555Z,10.10
2023-03-08T01:36:40.919Z,11.02
2023-03-08T01:39:09.562Z,10.25
2023-03-08T01:41:40.909Z,12.68
2023-03-08T01:44:15.642Z,10.80
2023-03-08T01:46:44.606Z,12.07
2023-03-08T01:49:29.785Z,11.70
2023-03-08T01:52:03.683Z,11.15
2023-03-08T01:57:08.123Z,11.02
2023-03-08T01:59:38.361Z,11.40
2023-03-08T02:02:07.949Z,11.05
2023-03-08T02:04:40.929Z,9.40
2023-03-08T02:07:12.958Z,10.67
2023-03-08T02:09:46.164Z,11.25
2023-03-08T02:12:18.702Z,11.88
2023-03-08T02:14:48.899Z,10.45
2023-03-08T02:17:17.155Z,10.90
2023-03-08T02:19:58.275Z,11.77
2023-03-08T02:22:39.435Z,11.77
2023-03-08T02:25:27.701Z,11.30
2023-03-08T02:27:55.801Z,13.32
2023-03-08T02:30:28.792Z,12.38
2023-03-08T02:33:19.332Z,11.70
2023-03-08T02:35:51.530Z,13.95
2023-03-08T02:38:25.484Z,13.73
2023-03-08T02:40:54.942Z,12.13
2023-03-08T02:43:23.880Z,12.63
2023-03-08T02:45:53.608Z,13.18
2023-03-08T02:48:22.303Z,11.98
2023-03-08T02:50:51.860Z,12.45
2023-03-08T02:53:21.032Z,12.68
2023-03-08T02:55:51.886Z,12.88
2023-03-08T02:58:22.858Z,13.45
2023-03-08T03:00:52.117Z,12.95
2023-03-08T03:03:33.637Z,13.13
2023-03-08T03:06:06.585Z,12.77
2023-03-08T03:08:39.106Z,13.07
2023-03-08T03:11:12.924Z,14.65
2023-03-08T03:13:41.535Z,13.95
2023-03-08T03:16:16.442Z,13.85
2023-03-08T03:18:47.548Z,13.75
2023-03-08T03:21:16.978Z,13.80
2023-03-08T03:23:45.463Z,15.70
2023-03-08T03:26:19.809Z,13.27
2023-03-08T03:28:58.539Z,15.00
2023-03-08T03:31:32.486Z,13.73
2023-03-08T03:34:01.160Z,13.35
2023-03-08T03:36:34.846Z,14.60
2023-03-08T03:39:04.043Z,14.25
2023-03-08T03:41:36.984Z,14.30
2023-03-08T03:44:10.903Z,14.65
2023-03-08T03:46:40.716Z,13.85
2023-03-08T03:49:14.129Z,13.63
2023-03-08T03:51:47.069Z,13.93
2023-03-08T03:54:29.859Z,15.05
2023-03-08T03:57:03.456Z,14.90
2023-03-08T03:59:37.873Z,14.93
2023-03-08T04:02:07.533Z,14.85
2023-03-08T04:04:44.843Z,15.70
2023-03-08T04:07:17.586Z,14.90
2023-03-08T04:09:53.521Z,15.75
2023-03-08T04:12:25.222Z,14.27
2023-03-08T04:14:55.333Z,14.18
2023-03-08T04:17:27.586Z,12.03
2023-03-08T04:19:56.756Z,14.90
2023-03-08T04:22:25.408Z,14.98
2023-03-08T04:24:58.004Z,15.50
2023-03-08T04:27:38.299Z,14.95
2023-03-08T04:30:08.565Z,14.13
2023-03-08T04:32:52.888Z,15.70
2023-03-08T04:35:25.830Z,15.65
2023-03-08T04:37:56.040Z,15.80
2023-03-08T04:40:26.999Z,16.17
2023-03-08T04:43:00.137Z,14.52
2023-03-08T04:45:39.966Z,17.13
2023-03-08T04:48:15.871Z,15.23
2023-03-08T04:50:45.460Z,15.73
2023-03-08T04:53:14.712Z,14.43
2023-03-08T04:55:44.110Z,16.60
2023-03-08T04:58:16.191Z,16.80
2023-03-08T05:00:44.489Z,16.08
2023-03-08T05:03:20.702Z,15.80
2023-03-08T05:05:50.716Z,15.18
2023-03-08T05:08:21.237Z,17.25
2023-03-08T05:11:00.773Z,16.17
2023-03-08T05:13:35.168Z,17.55
2023-03-08T05:16:04.733Z,16.40
2023-03-08T05:18:37.506Z,15.93
2023-03-08T05:21:08.313Z,16.33
2023-03-08T05:23:43.104Z,17.55
2023-03-08T05:26:14.537Z,16.45
2023-03-08T05:28:43.253Z,16.45
2023-03-08T05:31:17.630Z,17.08
2023-03-08T05:33:50.957Z,15.23
2023-03-08T05:36:25.050Z,16.63
2023-03-08T05:38:57.301Z,15.75
2023-03-08T05:41:37.308Z,14.70
2023-03-08T05:44:07.345Z,15.88
2023-03-08T05:46:38.810Z,15.00
2023-03-08T05:49:10.441Z,15.82
2023-03-08T05:51:40.045Z,14.85
2023-03-08T05:54:09.252Z,16.33
2023-03-08T05:56:41.094Z,13.27
2023-03-08T05:59:17.942Z,11.18
2023-03-08T06:01:50.320Z,11.48
2023-03-08T06:04:32.713Z,14.02
2023-03-08T06:07:01.107Z,11.70
2023-03-08T06:09:39.067Z,12.02
2023-03-08T06:12:10.887Z,13.82
2023-03-08T06:14:41.742Z,11.40
2023-03-08T06:17:10.494Z,10.50
2023-03-08T06:19:43.480Z,9.68
2023-03-08T06:22:16.901Z,10.80
2023-03-08T06:24:49.602Z,8.63
2023-03-08T06:27:22.226Z,8.43
2023-03-08T06:29:53.151Z,7.07
2023-03-08T06:32:23.155Z,7.45
2023-03-08T06:34:52.348Z,7.57
2023-03-08T06:37:22.043Z,7.30
2023-03-08T06:39:55.638Z,7.22
2023-03-08T06:42:40.247Z,6.97
2023-03-08T06:45:10.808Z,6.47
2023-03-08T06:47:46.418Z,7.15
2023-03-08T06:50:17.767Z,6.57
2023-03-08T06:52:51.473Z,7.45
2023-03-08T06:55:29.186Z,5.43
2023-03-08T06:57:57.826Z,5.15
2023-03-08T07:00:32.376Z,4.72
2023-03-08T07:03:20.034Z,4.60
2023-03-08T07:05:49.182Z,5.38
2023-03-08T07:08:17.880Z,4.60
2023-03-08T07:10:46.247Z,5.47
2023-03-08T07:13:15.000Z,6.22
2023-03-08T07:15:43.245Z,5.55
2023-03-08T07:18:11.852Z,5.95
2023-03-08T07:20:41.277Z,6.00
2023-03-08T07:23:10.601Z,6.20
2023-03-08T07:25:41.112Z,6.38
2023-03-08T07:28:10.124Z,6.15
2023-03-08T07:30:41.801Z,7.07
2023-03-08T07:33:29.521Z,6.55
2023-03-08T07:36:01.543Z,6.43
2023-03-08T07:38:30.913Z,5.75
2023-03-08T07:41:01.895Z,5.32
2023-03-08T07:43:33.416Z,5.32
2023-03-08T07:46:11.562Z,5.68
2023-03-08T07:48:39.900Z,6.28
2023-03-08T07:51:10.300Z,5.88
2023-03-08T07:53:46.048Z,4.47
2023-03-08T07:56:14.509Z,3.97
2023-03-08T07:58:43.136Z,4.47
2023-03-08T08:01:13.839Z,3.95
2023-03-08T08:03:44.617Z,3.60
2023-03-08T08:06:13.360Z,3.08
2023-03-08T08:08:42.182Z,3.40
2023-03-08T08:11:15.035Z,2.95
2023-03-08T08:13:44.557Z,3.42
2023-03-08T08:16:15.721Z,3.33
2023-03-08T08:18:47.932Z,3.03
2023-03-08T08:21:17.414Z,2.95
2023-03-08T08:23:46.834Z,2.58
2023-03-08T08:26:16.920Z,3.85
2023-03-08T08:28:46.830Z,2.90
2023-03-08T08:31:17.228Z,3.03
2023-03-08T08:33:48.554Z,2.03
2023-03-08T08:36:18.185Z,2.65
2023-03-08T08:38:47.221Z,2.67
2023-03-08T08:41:16.742Z,2.20
2023-03-08T08:43:45.759Z,2.65
2023-03-08T08:46:17.163Z,2.13
2023-03-08T08:48:47.074Z,2.77
2023-03-08T08:51:18.169Z,2.35
2023-03-08T08:53:46.385Z,2.35
2023-03-08T08:56:28.935Z,1.90
2023-03-08T08:59:01.666Z,2.33
2023-03-08T09:01:33.225Z,2.20
2023-03-08T09:04:02.145Z,2.90
2023-03-08T09:06:34.942Z,2.70
2023-03-08T09:09:03.831Z,2.80
2023-03-08T09:11:42.174Z,3.03
2023-03-08T09:14:17.140Z,3.22
2023-03-08T09:16:45.739Z,3.35
2023-03-08T09:19:15.630Z,2.97
2023-03-08T09:21:48.728Z,2.92
2023-03-08T09:24:19.414Z,2.88
2023-03-08T09:26:50.214Z,3.22
2023-03-08T09:29:19.593Z,2.78
2023-03-08T09:31:48.090Z,3.03
2023-03-08T09:34:19.422Z,3.13
2023-03-08T09:36:50.429Z,2.80
2023-03-08T09:39:19.322Z,3.47
2023-03-08T09:41:50.912Z,3.00
2023-03-08T09:44:21.674Z,3.47
2023-03-08T09:46:56.136Z,2.92
2023-03-08T09:49:29.702Z,2.80
2023-03-08T09:52:05.466Z,3.25
2023-03-08T09:54:38.284Z,3.47
2023-03-08T09:57:11.441Z,3.35
2023-03-08T09:59:45.842Z,2.97
2023-03-08T10:02:14.817Z,3.42
2023-03-08T10:05:12.208Z,3.25
2023-03-08T10:07:52.201Z,4.13
2023-03-08T10:10:23.284Z,4.20
2023-03-08T10:12:57.794Z,3.63
2023-03-08T10:15:26.909Z,3.47
2023-03-08T10:17:55.077Z,4.00
2023-03-08T10:20:25.241Z,3.90
2023-03-08T10:23:07.698Z,3.80
2023-03-08T10:25:39.584Z,3.72
2023-03-08T10:28:13.222Z,4.50
2023-03-08T10:30:47.598Z,3.88
2023-03-08T10:33:24.236Z,4.15
2023-03-08T10:35:55.579Z,4.47
2023-03-08T10:38:25.177Z,4.32
2023-03-08T10:41:07.060Z,4.30
2023-03-08T10:43:39.672Z,4.45
2023-03-08T10:46:18.693Z,4.43
2023-03-08T10:48:47.372Z,3.65
2023-03-08T10:51:21.654Z,4.55
2023-03-08T10:53:54.539Z,4.53
2023-03-08T10:56:38.867Z,4.82
2023-03-08T10:59:16.392Z,4.78
2023-03-08T11:01:54.721Z,4.47
2023-03-08T11:04:24.595Z,4.00
2023-03-08T11:06:52.895Z,5.15
2023-03-08T11:09:29.973Z,4.95
2023-03-08T11:11:59.743Z,4.80
2023-03-08T11:14:33.377Z,5.07
2023-03-08T11:17:20.837Z,5.57
2023-03-08T11:20:00.270Z,5.25
2023-03-08T11:22:34.637Z,5.18
2023-03-08T11:25:23.796Z,4.40
2023-03-08T11:28:15.306Z,5.63
2023-03-08T11:31:04.826Z,6.22
2023-03-08T11:33:44.887Z,6.45
2023-03-08T11:36:13.302Z,6.57
2023-03-08T11:38:41.960Z,6.78
2023-03-08T11:41:10.040Z,6.70
2023-03-08T11:44:10.082Z,5.80
2023-03-08T11:46:38.124Z,7.03
2023-03-08T11:49:25.465Z,7.78
2023-03-08T11:52:01.184Z,7.22
2023-03-08T11:54:44.948Z,7.50
2023-03-08T11:57:17.401Z,7.22
2023-03-08T11:59:48.246Z,6.22
2023-03-08T12:02:20.587Z,6.97
2023-03-08T12:05:06.360Z,6.53
2023-03-08T12:08:00.926Z,7.05
2023-03-08T12:10:31.706Z,6.93
2023-03-08T12:13:04.838Z,6.15
2023-03-08T12:15:39.914Z,6.78
2023-03-08T12:18:17.450Z,7.35
2023-03-08T12:20:46.405Z,6.90
2023-03-08T12:23:26.448Z,6.80
2023-03-08T12:26:14.519Z,7.20
2023-03-08T12:28:49.441Z,4.78
2023-03-08T12:31:28.856Z,6.68
2023-03-08T12:34:00.720Z,6.43
2023-03-08T12:36:39.212Z,6.78
2023-03-08T12:39:09.718Z,7.45
2023-03-08T12:41:40.234Z,6.78
2023-03-08T12:44:26.718Z,6.72
2023-03-08T12:47:03.415Z,6.55
2023-03-08T12:49:32.855Z,6.25
2023-03-08T12:52:06.480Z,7.72
2023-03-08T12:54:37.217Z,7.53
2023-03-08T12:57:15.833Z,7.32
2023-03-08T12:59:44.057Z,7.10
2023-03-08T13:02:31.196Z,7.60
2023-03-08T13:05:20.334Z,7.53
2023-03-08T13:07:52.893Z,7.03
2023-03-08T13:10:23.317Z,8.00
2023-03-08T13:12:58.362Z,8.20
2023-03-08T13:15:27.190Z,7.55
2023-03-08T13:18:06.101Z,7.60
2023-03-08T13:20:48.805Z,8.15
2023-03-08T13:23:23.438Z,7.28
2023-03-08T13:25:56.680Z,7.75
2023-03-08T13:28:30.452Z,7.78
2023-03-08T13:31:16.752Z,7.55
2023-03-08T13:33:53.349Z,7.68
2023-03-08T13:36:23.747Z,7.72
2023-03-08T13:39:04.324Z,8.13
2023-03-08T13:41:36.959Z,8.65
2023-03-08T13:44:06.751Z,8.90
2023-03-08T13:46:35.923Z,8.50
2023-03-08T13:49:04.516Z,8.52
2023-03-08T13:51:33.295Z,8.25
2023-03-08T13:54:01.996Z,8.85
2023-03-08T13:56:33.623Z,8.60
2023-03-08T13:59:04.626Z,8.63
2023-03-08T14:01:35.610Z,9.35
2023-03-08T14:04:11.985Z,8.93
2023-03-08T14:06:49.193Z,9.55
2023-03-08T14:09:18.482Z,8.05
2023-03-08T14:11:49.768Z,8.73
2023-03-08T14:14:23.666Z,8.52
2023-03-08T14:16:53.651Z,10.18
2023-03-08T14:19:26.812Z,9.18
2023-03-08T14:21:56.924Z,10.48
2023-03-08T14:24:26.536Z,10.73
2023-03-08T14:26:57.106Z,11.18
2023-03-08T14:29:26.515Z,11.15
2023-03-08T14:31:56.831Z,9.35
2023-03-08T14:34:26.946Z,9.98
2023-03-08T14:37:05.576Z,9.60
2023-03-08T14:39:35.115Z,8.85
2023-03-08T14:42:17.694Z,9.63
2023-03-08T14:44:51.199Z,7.70
2023-03-08T14:47:25.045Z,9.68
2023-03-08T14:50:05.164Z,8.77
2023-03-08T14:52:48.676Z,9.40
2023-03-08T14:55:21.053Z,9.57
2023-03-08T14:57:49.564Z,9.00
2023-03-08T15:00:18.409Z,9.95
2023-03-08T15:02:55.076Z,10.05
2023-03-08T15:05:29.218Z,10.32
2023-03-08T15:07:59.345Z,11.50
2023-03-08T15:10:30.180Z,10.18
2023-03-08T15:12:58.825Z,9.90
2023-03-08T15:15:27.886Z,10.98
2023-03-08T15:17:59.121Z,10.98
2023-03-08T15:20:27.539Z,12.57
2023-03-08T15:22:57.831Z,10.77
2023-03-08T15:25:35.819Z,11.32
2023-03-08T15:28:05.175Z,12.35
2023-03-08T15:30:34.275Z,11.07
2023-03-08T15:33:04.741Z,12.10
2023-03-08T15:35:33.740Z,11.73
2023-03-08T15:38:03.067Z,11.90
2023-03-08T15:40:34.114Z,12.38
2023-03-08T15:43:33.697Z,12.27
2023-03-08T15:46:04.703Z,12.18
2023-03-08T15:48:35.416Z,13.02
2023-03-08T15:51:04.346Z,12.77
2023-03-08T15:53:35.996Z,12.30
2023-03-08T15:56:04.696Z,13.23
2023-03-08T15:58:35.434Z,12.65
2023-03-08T16:01:05.264Z,13.40
2023-03-08T16:03:53.001Z,14.23
2023-03-08T16:06:22.960Z,13.90
2023-03-08T16:08:51.537Z,13.85
2023-03-08T16:11:22.288Z,15.40
2023-03-08T16:13:52.158Z,14.00
2023-03-08T16:16:24.466Z,14.50
2023-03-08T16:18:56.181Z,15.73
2023-03-08T16:21:25.299Z,15.02
2023-03-08T16:23:57.205Z,15.45
2023-03-08T16:26:31.577Z,16.20
2023-03-08T16:28:59.851Z,16.73
2023-03-08T16:31:33.336Z,16.40
2023-03-08T16:34:03.703Z,14.98
2023-03-08T16:36:33.415Z,15.45
2023-03-08T16:39:02.718Z,17.52
2023-03-08T16:41:35.421Z,17.75
2023-03-08T16:44:04.268Z,16.92
2023-03-08T16:46:34.614Z,17.25
2023-03-08T16:49:03.187Z,15.93
2023-03-08T16:51:32.936Z,17.15
2023-03-08T16:54:02.180Z,17.40
2023-03-08T16:56:31.811Z,16.73
2023-03-08T16:59:01.280Z,17.25
2023-03-08T17:01:33.555Z,17.83
2023-03-08T17:04:03.460Z,17.95
2023-03-08T17:06:34.415Z,16.98
2023-03-08T17:09:04.755Z,19.40
2023-03-08T17:11:37.359Z,20.25
2023-03-08T17:14:08.224Z,15.50
2023-03-08T17:16:37.519Z,18.38
2023-03-08T17:19:10.024Z,20.65
2023-03-08T17:21:39.066Z,19.60
2023-03-08T17:24:09.969Z,21.40
2023-03-08T17:26:42.069Z,17.67
2023-03-08T17:29:13.236Z,19.17
2023-03-08T17:31:42.287Z,18.13
2023-03-08T17:34:11.876Z,17.75
2023-03-08T17:36:40.446Z,18.67
2023-03-08T17:39:08.969Z,18.17
2023-03-08T17:41:38.658Z,17.98
2023-03-08T17:44:14.008Z,20.75
2023-03-08T17:46:45.346Z,18.40
2023-03-08T17:49:23.104Z,18.42
2023-03-08T17:51:52.140Z,19.17
2023-03-08T17:54:21.157Z,19.63
2023-03-08T17:56:49.841Z,20.35
2023-03-08T17:59:18.808Z,19.67
2023-03-08T18:01:47.609Z,18.70
2023-03-08T18:04:16.473Z,21.02
2023-03-08T18:06:46.409Z,22.05
2023-03-08T18:09:16.023Z,20.25
2023-03-08T18:11:50.011Z,22.08
2023-03-08T18:14:18.555Z,23.00
2023-03-08T18:16:47.116Z,22.00
2023-03-08T18:19:15.472Z,21.92
2023-03-08T18:21:43.923Z,21.90
2023-03-08T18:24:15.320Z,24.13
2023-03-08T18:26:44.258Z,22.48
2023-03-08T18:29:15.085Z,22.17
2023-03-08T18:31:43.736Z,22.98
2023-03-08T18:34:12.730Z,23.13
2023-03-08T18:36:42.090Z,23.38
2023-03-08T18:39:13.216Z,23.88
2023-03-08T18:41:41.578Z,23.75
2023-03-08T18:44:12.746Z,21.33
2023-03-08T18:46:41.412Z,25.00
2023-03-08T18:49:14.130Z,24.55
2023-03-08T18:51:44.961Z,23.05
2023-03-08T18:54:17.442Z,22.13
2023-03-08T18:56:46.190Z,23.77
2023-03-08T18:59:15.156Z,22.88
2023-03-08T19:01:46.309Z,24.48
2023-03-08T19:04:18.263Z,22.42
2023-03-08T19:06:47.163Z,23.20
2023-03-08T19:09:16.912Z,23.65
2023-03-08T19:11:45.902Z,24.83
2023-03-08T19:14:17.969Z,25.58
2023-03-08T19:16:47.084Z,25.10
2023-03-08T19:19:16.905Z,24.33
2023-03-08T19:21:46.244Z,26.48
2023-03-08T19:24:16.659Z,26.20
2023-03-08T19:26:47.390Z,25.05
2023-03-08T19:29:18.770Z,23.48
2023-03-08T19:31:52.630Z,24.23
2023-03-08T19:34:23.570Z,24.98
2023-03-08T19:36:52.488Z,27.35
2023-03-08T19:39:24.861Z,25.98
2023-03-08T19:41:56.876Z,25.48
2023-03-08T19:44:28.562Z,24.90
2023-03-08T19:46:57.486Z,24.52
2023-03-08T19:49:29.345Z,22.98
2023-03-08T19:52:02.315Z,25.00
2023-03-08T19:54:35.780Z,23.50
2023-03-08T19:57:06.350Z,24.30
2023-03-08T19:59:39.153Z,24.40
2023-03-08T20:02:08.894Z,24.95
2023-03-08T20:04:38.111Z,25.73
2023-03-08T20:07:06.649Z,26.08
2023-03-08T20:09:35.370Z,25.15
2023-03-08T20:12:06.508Z,25.42
2023-03-08T20:14:37.620Z,25.75
2023-03-08T20:17:06.224Z,24.80
2023-03-08T20:19:36.557Z,26.58
2023-03-08T20:22:05.451Z,26.85
2023-03-08T20:24:39.960Z,24.35
2023-03-08T20:27:11.110Z,25.38
2023-03-08T20:29:41.900Z,25.13
2023-03-08T20:32:10.102Z,26.98
2023-03-08T20:34:43.475Z,25.27
2023-03-08T20:37:12.542Z,29.48
2023-03-08T20:39:44.800Z,25.95
2023-03-08T20:42:13.066Z,24.95
2023-03-08T20:44:43.698Z,25.90
2023-03-08T20:47:18.488Z,25.50
2023-03-08T20:49:49.876Z,22.73
2023-03-08T20:52:18.562Z,23.80
2023-03-08T20:54:49.609Z,24.73
2023-03-08T20:57:19.176Z,26.48
2023-03-08T20:59:50.384Z,23.38
2023-03-08T21:02:20.880Z,24.83
2023-03-08T21:04:50.523Z,25.17
2023-03-08T21:07:20.464Z,23.75
2023-03-08T21:09:48.960Z,24.95
2023-03-08T21:12:18.177Z,25.33
2023-03-08T21:14:46.794Z,26.25
2023-03-08T21:17:21.967Z,23.90
2023-03-08T21:19:52.060Z,23.02
2023-03-08T21:22:21.146Z,25.70
2023-03-08T21:24:51.714Z,24.45
2023-03-08T21:27:20.338Z,24.23
2023-03-08T21:29:49.002Z,25.05
2023-03-08T21:32:17.873Z,25.08
2023-03-08T21:34:48.665Z,26.23
2023-03-08T21:37:16.876Z,25.48
2023-03-08T21:39:45.089Z,23.60
2023-03-08T21:42:14.041Z,22.02
2023-03-08T21:44:42.304Z,24.83
2023-03-08T21:47:10.714Z,23.20
2023-03-08T21:49:42.103Z,23.70
2023-03-08T21:52:13.026Z,24.35
2023-03-08T21:54:41.474Z,23.65
2023-03-08T21:57:10.491Z,22.20
2023-03-08T21:59:39.180Z,23.40
2023-03-08T22:02:10.009Z,23.58
2023-03-08T22:04:40.905Z,23.70
2023-03-08T22:07:11.990Z,22.83
2023-03-08T22:09:40.346Z,24.17
2023-03-08T22:12:09.694Z,23.42
2023-03-08T22:14:38.589Z,22.33
2023-03-08T22:17:07.270Z,24.00
2023-03-08T22:19:39.217Z,22.23
2023-03-08T22:22:10.396Z,22.58
2023-03-08T22:24:39.048Z,21.75
2023-03-08T22:27:07.573Z,20.95
2023-03-08T22:29:36.284Z,20.88
2023-03-08T22:32:05.379Z,20.33
2023-03-08T22:34:34.189Z,21.50
2023-03-08T22:37:06.079Z,22.38
2023-03-08T22:39:34.404Z,20.58
2023-03-08T22:42:03.435Z,22.08
2023-03-08T22:44:34.745Z,22.48
2023-03-08T22:47:03.339Z,22.08
2023-03-08T22:49:35.102Z,23.50
2023-03-08T22:52:04.647Z,21.05
2023-03-08T22:54:32.970Z,22.00
2023-03-08T22:57:01.397Z,22.90
2023-03-08T22:59:32.104Z,23.45
2023-03-08T23:02:00.963Z,21.10
2023-03-08T23:04:32.333Z,23.23
2023-03-08T23:07:00.804Z,21.30
2023-03-08T23:09:29.144Z,21.27
2023-03-08T23:12:02.737Z,21.40
2023-03-08T23:14:31.604Z,20.70
2023-03-08T23:17:02.460Z,23.55
2023-03-08T23:19:34.695Z,21.20
2023-03-08T23:22:05.177Z,21.83
2023-03-08T23:24:34.403Z,19.80
2023-03-08T23:27:05.886Z,18.85
2023-03-08T23:29:34.128Z,17.70
2023-03-08T23:32:02.652Z,18.10
2023-03-08T23:34:34.274Z,20.38
2023-03-08T23:37:04.120Z,21.10
2023-03-08T23:39:33.926Z,18.52
2023-03-08T23:42:05.946Z,18.73
2023-03-08T23:44:35.505Z,19.13
2023-03-08T23:47:04.467Z,21.35
2023-03-08T23:49:34.877Z,18.92
2023-03-08T23:52:03.743Z,18.73
2023-03-08T23:54:33.664Z,16.48
2023-03-08T23:57:06.584Z,17.83
2023-03-08T23:59:37.030Z,15.98
